Fort Defiance, AZ (86504)

3:42 PM MDT on May 03, 2015 (GMT -0600)
Window Rock | | Change Station
CLOSE
Current Station
Airport
Location: Window Rock,
Elevation: 6742 ft
Nearby Weather Stations

Elev 6742 ft 35.66 °N, 109.06 °W | Updated 49 minutes ago

Mostly Cloudy
Mostly Cloudy
66 °F
Feels Like 66 °F
N
4
Wind Variable Wind from ESE

Today
High -- | Low -- °F
--% Chance of Precip.
Yesterday
High -- | Low -- °F
Precip. -- in
6:22 AM 8:04 PM
Full, 100% visible
Pressure 29.81 in
Visibility 10.0 miles
Clouds Few 10000 ft
Mostly Cloudy 12000 ft
Dew Point 32 °F
Humidity 28%
Rainfall 0.02 in
Snow Depth Not available.
UV 6 out of 12
Pollen 7.60 out of 12
Air Quality Not available.
Flu Activity Local Activity
METAR KRQE 032053Z AUTO 11003KT 10SM FEW100 BKN120 19/00 A3005 RMK AO2 SLP093 60001 T01890000 58017 TSNO

More Conditions Fewer Conditions

Pressure 29.81 in
Visibility 10.0 miles
Clouds Few 10000 ft
Mostly Cloudy 12000 ft
Dew Point 32 °F
Humidity 28%
Rainfall 0.02 in
Snow Depth Not available.
UV 6 out of 12
Pollen 7.60 out of 12
Air Quality Not available.
Flu Activity Local Activity
METAR KRQE 032053Z AUTO 11003KT 10SM FEW100 BKN120 19/00 A3005 RMK AO2 SLP093 60001 T01890000 58017 TSNO

More Conditions Fewer Conditions

Nepal has a long way to go to dig out and rebuild from a devastating earthquake. We have teamed up with several charities and organizations to make contributing to the relief effort as easy as possible.
How you can help: Portlight Strategies | Red Cross

10-Day Weather Forecast

Almanac

Astronomy

May. 03, 2015 Rise Set
Actual Time
Civil Twilight
Nautical Twilight
Astronomical Twilight
Moon
Length of Visible Light
Length of Day
Tomorrow will be .
, % of the Moon is Illuminated

Today's Extremes

State Highs State Lows

Community

WunderPhotos

Upload Photos

1,818,379 photos uploaded!

WunderBlogs® & News

Nearby

Air Quality

  Air Quality AQ Index Pollutant
Not available.

Snow Depth

Station Depth Elevation

Earthquake Activity

City Distance Mag. Time & Date
Minimum magnitude displayed is 2.5.

Coastal Water Temperatures

Place Temperature

Stations

Nearby Weather Stations

Station Location Temp. Windchill Dew Point Humidity Wind Precip. Elev Updated Type